Terminal Aerodrome Forecast
Issued by NWS

Home | Current Version | Previous Version | Text Only | Print | Product List | Glossary On
Versions: 1 2 3 4 5 6 7 8 9 10 11 12 13 14 15 16 17 18 19 20
000
FTUS43 KIND 301125
TAFHUF
TAF
KHUF 301125Z 3012/0112 08008KT 3SM -RA BR FEW008 BKN050
     FM301300 11013KT 4SM -SHRA BR OVC025
     FM301700 12013G20KT 3SM -RA VCTS OVC007CB
     FM010200 17005KT 5SM BR VCSH OVC015
     FM010900 24004KT 5SM BR VCSH OVC005=

USA.gov is the U.S. government's official web portal to all federal, state and local government web resources and services.